sensor_id;sensor_type;location;lat;lon;timestamp;P1;durP1;ratioP1;P2;durP2;ratioP2
41677;SDS011;27364;49.026;8.712;2022-12-20T00:01:51;34.72;;;24.83;;
41677;SDS011;27364;49.026;8.712;2022-12-20T00:04:17;36.67;;;26.35;;
41677;SDS011;27364;49.026;8.712;2022-12-20T00:06:42;42.13;;;27.25;;
41677;SDS011;27364;49.026;8.712;2022-12-20T00:09:08;34.95;;;24.52;;
41677;SDS011;27364;49.026;8.712;2022-12-20T00:11:37;42.03;;;29.03;;
41677;SDS011;27364;49.026;8.712;2022-12-20T00:16:29;31.20;;;22.70;;
41677;SDS011;27364;49.026;8.712;2022-12-20T00:18:59;35.13;;;24.63;;
41677;SDS011;27364;49.026;8.712;2022-12-20T00:21:27;31.77;;;22.15;;
41677;SDS011;27364;49.026;8.712;2022-12-20T00:23:53;31.90;;;21.20;;
41677;SDS011;27364;49.026;8.712;2022-12-20T00:26:21;35.58;;;23.20;;
41677;SDS011;27364;49.026;8.712;2022-12-20T00:28:48;30.80;;;21.65;;
41677;SDS011;27364;49.026;8.712;2022-12-20T00:31:15;32.70;;;22.08;;
41677;SDS011;27364;49.026;8.712;2022-12-20T00:33:44;32.78;;;21.92;;
41677;SDS011;27364;49.026;8.712;2022-12-20T00:36:10;31.23;;;21.13;;
41677;SDS011;27364;49.026;8.712;2022-12-20T00:38:36;34.22;;;21.48;;
41677;SDS011;27364;49.026;8.712;2022-12-20T00:41:02;23.63;;;17.65;;
41677;SDS011;27364;49.026;8.712;2022-12-20T00:43:32;24.63;;;18.48;;
41677;SDS011;27364;49.026;8.712;2022-12-20T00:45:58;28.27;;;19.23;;
41677;SDS011;27364;49.026;8.712;2022-12-20T00:48:25;27.23;;;19.40;;
41677;SDS011;27364;49.026;8.712;2022-12-20T00:50:56;27.75;;;19.40;;
41677;SDS011;27364;49.026;8.712;2022-12-20T00:53:23;32.50;;;20.85;;
41677;SDS011;27364;49.026;8.712;2022-12-20T00:55:48;32.17;;;21.45;;
41677;SDS011;27364;49.026;8.712;2022-12-20T00:58:14;28.25;;;19.85;;
41677;SDS011;27364;49.026;8.712;2022-12-20T01:00:40;29.55;;;21.25;;
41677;SDS011;27364;49.026;8.712;2022-12-20T01:03:06;29.17;;;20.75;;
41677;SDS011;27364;49.026;8.712;2022-12-20T01:05:32;28.08;;;20.17;;
41677;SDS011;27364;49.026;8.712;2022-12-20T01:07:57;29.63;;;21.00;;
41677;SDS011;27364;49.026;8.712;2022-12-20T01:10:23;24.85;;;18.88;;
41677;SDS011;27364;49.026;8.712;2022-12-20T01:12:49;26.20;;;19.40;;
41677;SDS011;27364;49.026;8.712;2022-12-20T01:15:15;28.10;;;20.02;;
41677;SDS011;27364;49.026;8.712;2022-12-20T01:17:41;34.83;;;22.55;;
41677;SDS011;27364;49.026;8.712;2022-12-20T01:20:06;31.90;;;21.95;;
41677;SDS011;27364;49.026;8.712;2022-12-20T01:22:32;31.70;;;21.77;;
41677;SDS011;27364;49.026;8.712;2022-12-20T01:24:58;25.83;;;20.23;;
41677;SDS011;27364;49.026;8.712;2022-12-20T01:27:23;26.63;;;19.02;;
41677;SDS011;27364;49.026;8.712;2022-12-20T01:29:49;29.38;;;19.75;;
41677;SDS011;27364;49.026;8.712;2022-12-20T01:32:15;27.85;;;20.20;;
41677;SDS011;27364;49.026;8.712;2022-12-20T01:34:41;27.67;;;20.70;;
41677;SDS011;27364;49.026;8.712;2022-12-20T01:37:06;26.92;;;20.10;;
41677;SDS011;27364;49.026;8.712;2022-12-20T01:39:32;29.27;;;20.80;;
41677;SDS011;27364;49.026;8.712;2022-12-20T01:41:57;30.10;;;21.55;;
41677;SDS011;27364;49.026;8.712;2022-12-20T01:46:49;28.95;;;22.20;;
41677;SDS011;27364;49.026;8.712;2022-12-20T01:49:16;25.02;;;19.55;;
41677;SDS011;27364;49.026;8.712;2022-12-20T01:52:01;24.38;;;18.33;;
41677;SDS011;27364;49.026;8.712;2022-12-20T01:54:36;25.73;;;19.13;;
41677;SDS011;27364;49.026;8.712;2022-12-20T01:57:10;23.23;;;18.23;;
41677;SDS011;27364;49.026;8.712;2022-12-20T01:59:39;24.90;;;18.35;;
41677;SDS011;27364;49.026;8.712;2022-12-20T02:02:08;28.30;;;18.17;;
41677;SDS011;27364;49.026;8.712;2022-12-20T02:04:36;24.98;;;18.75;;
41677;SDS011;27364;49.026;8.712;2022-12-20T02:07:02;24.40;;;19.27;;
41677;SDS011;27364;49.026;8.712;2022-12-20T02:09:29;20.98;;;16.25;;
41677;SDS011;27364;49.026;8.712;2022-12-20T02:20:03;18.58;;;14.52;;
41677;SDS011;27364;49.026;8.712;2022-12-20T02:28:40;20.77;;;16.30;;
41677;SDS011;27364;49.026;8.712;2022-12-20T02:31:38;21.08;;;16.52;;
41677;SDS011;27364;49.026;8.712;2022-12-20T02:34:09;22.05;;;16.75;;
41677;SDS011;27364;49.026;8.712;2022-12-20T02:36:35;24.40;;;17.65;;
41677;SDS011;27364;49.026;8.712;2022-12-20T02:39:01;22.10;;;16.52;;
41677;SDS011;27364;49.026;8.712;2022-12-20T02:41:41;25.98;;;16.90;;
41677;SDS011;27364;49.026;8.712;2022-12-20T02:44:13;21.08;;;16.58;;
41677;SDS011;27364;49.026;8.712;2022-12-20T02:46:59;21.52;;;16.13;;
41677;SDS011;27364;49.026;8.712;2022-12-20T02:49:30;21.98;;;17.00;;
41677;SDS011;27364;49.026;8.712;2022-12-20T02:51:59;22.73;;;16.92;;
41677;SDS011;27364;49.026;8.712;2022-12-20T02:54:26;22.88;;;16.95;;
41677;SDS011;27364;49.026;8.712;2022-12-20T02:57:01;22.00;;;16.85;;
41677;SDS011;27364;49.026;8.712;2022-12-20T02:59:56;22.00;;;16.40;;
41677;SDS011;27364;49.026;8.712;2022-12-20T03:02:34;22.80;;;15.98;;
41677;SDS011;27364;49.026;8.712;2022-12-20T03:05:20;21.67;;;16.20;;
41677;SDS011;27364;49.026;8.712;2022-12-20T03:07:48;21.48;;;16.30;;
41677;SDS011;27364;49.026;8.712;2022-12-20T03:10:14;19.35;;;15.52;;
41677;SDS011;27364;49.026;8.712;2022-12-20T03:12:40;18.77;;;15.40;;
41677;SDS011;27364;49.026;8.712;2022-12-20T03:15:06;21.33;;;15.90;;
41677;SDS011;27364;49.026;8.712;2022-12-20T03:17:32;19.52;;;15.88;;
41677;SDS011;27364;49.026;8.712;2022-12-20T03:19:57;20.48;;;15.63;;
41677;SDS011;27364;49.026;8.712;2022-12-20T03:22:23;22.05;;;16.13;;
41677;SDS011;27364;49.026;8.712;2022-12-20T03:24:48;22.88;;;15.85;;
41677;SDS011;27364;49.026;8.712;2022-12-20T03:27:14;21.17;;;15.50;;
41677;SDS011;27364;49.026;8.712;2022-12-20T03:29:40;18.05;;;14.77;;
41677;SDS011;27364;49.026;8.712;2022-12-20T03:32:06;19.10;;;14.90;;
41677;SDS011;27364;49.026;8.712;2022-12-20T03:34:32;18.85;;;14.93;;
41677;SDS011;27364;49.026;8.712;2022-12-20T03:36:57;20.73;;;15.52;;
41677;SDS011;27364;49.026;8.712;2022-12-20T03:39:23;19.67;;;14.75;;
41677;SDS011;27364;49.026;8.712;2022-12-20T03:41:48;17.90;;;14.90;;
41677;SDS011;27364;49.026;8.712;2022-12-20T03:44:13;20.73;;;15.57;;
41677;SDS011;27364;49.026;8.712;2022-12-20T03:46:39;18.60;;;13.68;;
41677;SDS011;27364;49.026;8.712;2022-12-20T03:49:05;18.67;;;14.15;;
41677;SDS011;27364;49.026;8.712;2022-12-20T03:51:30;17.45;;;14.07;;
41677;SDS011;27364;49.026;8.712;2022-12-20T03:53:56;17.38;;;14.07;;
41677;SDS011;27364;49.026;8.712;2022-12-20T03:56:21;17.80;;;14.55;;
41677;SDS011;27364;49.026;8.712;2022-12-20T03:58:47;17.83;;;13.93;;
41677;SDS011;27364;49.026;8.712;2022-12-20T04:01:17;18.38;;;13.65;;
41677;SDS011;27364;49.026;8.712;2022-12-20T04:03:47;18.20;;;13.40;;
41677;SDS011;27364;49.026;8.712;2022-12-20T04:06:12;17.02;;;14.18;;
41677;SDS011;27364;49.026;8.712;2022-12-20T04:08:38;17.35;;;13.50;;
41677;SDS011;27364;49.026;8.712;2022-12-20T04:11:04;18.67;;;13.60;;
41677;SDS011;27364;49.026;8.712;2022-12-20T04:13:45;19.98;;;14.23;;
41677;SDS011;27364;49.026;8.712;2022-12-20T04:16:13;17.02;;;14.13;;
41677;SDS011;27364;49.026;8.712;2022-12-20T04:18:40;17.40;;;14.13;;
41677;SDS011;27364;49.026;8.712;2022-12-20T04:21:06;19.88;;;14.30;;
41677;SDS011;27364;49.026;8.712;2022-12-20T04:23:32;20.55;;;14.50;;
41677;SDS011;27364;49.026;8.712;2022-12-20T04:26:05;19.30;;;14.50;;
41677;SDS011;27364;49.026;8.712;2022-12-20T04:28:32;20.02;;;14.27;;
41677;SDS011;27364;49.026;8.712;2022-12-20T04:30:58;18.35;;;13.75;;
41677;SDS011;27364;49.026;8.712;2022-12-20T04:33:24;17.23;;;13.75;;
41677;SDS011;27364;49.026;8.712;2022-12-20T04:35:50;17.60;;;12.77;;
41677;SDS011;27364;49.026;8.712;2022-12-20T04:38:16;17.00;;;12.80;;
41677;SDS011;27364;49.026;8.712;2022-12-20T04:40:42;18.17;;;13.18;;
41677;SDS011;27364;49.026;8.712;2022-12-20T04:43:08;17.70;;;13.80;;
41677;SDS011;27364;49.026;8.712;2022-12-20T04:45:34;15.63;;;12.23;;
41677;SDS011;27364;49.026;8.712;2022-12-20T04:47:59;17.98;;;12.95;;
41677;SDS011;27364;49.026;8.712;2022-12-20T04:50:25;17.67;;;12.50;;
41677;SDS011;27364;49.026;8.712;2022-12-20T04:52:50;17.40;;;13.07;;
41677;SDS011;27364;49.026;8.712;2022-12-20T04:55:38;17.20;;;13.05;;
41677;SDS011;27364;49.026;8.712;2022-12-20T04:58:04;16.67;;;12.30;;
41677;SDS011;27364;49.026;8.712;2022-12-20T05:00:31;18.25;;;13.40;;
41677;SDS011;27364;49.026;8.712;2022-12-20T05:02:57;16.25;;;12.13;;
41677;SDS011;27364;49.026;8.712;2022-12-20T05:05:22;15.73;;;12.30;;
41677;SDS011;27364;49.026;8.712;2022-12-20T05:07:48;16.05;;;12.18;;
41677;SDS011;27364;49.026;8.712;2022-12-20T05:10:14;14.50;;;12.18;;
41677;SDS011;27364;49.026;8.712;2022-12-20T05:12:40;16.83;;;12.60;;
41677;SDS011;27364;49.026;8.712;2022-12-20T05:15:05;15.95;;;12.25;;
41677;SDS011;27364;49.026;8.712;2022-12-20T05:17:32;15.90;;;12.43;;
41677;SDS011;27364;49.026;8.712;2022-12-20T05:19:57;16.45;;;12.30;;
41677;SDS011;27364;49.026;8.712;2022-12-20T05:22:23;17.40;;;12.48;;
41677;SDS011;27364;49.026;8.712;2022-12-20T05:25:11;17.02;;;11.98;;
41677;SDS011;27364;49.026;8.712;2022-12-20T05:30:21;16.15;;;11.52;;
41677;SDS011;27364;49.026;8.712;2022-12-20T05:32:46;14.02;;;11.65;;
41677;SDS011;27364;49.026;8.712;2022-12-20T05:35:12;15.48;;;11.80;;
41677;SDS011;27364;49.026;8.712;2022-12-20T05:37:38;16.52;;;11.77;;
41677;SDS011;27364;49.026;8.712;2022-12-20T05:40:04;19.13;;;12.43;;
41677;SDS011;27364;49.026;8.712;2022-12-20T05:42:30;17.25;;;12.98;;
41677;SDS011;27364;49.026;8.712;2022-12-20T05:44:56;16.55;;;12.23;;
41677;SDS011;27364;49.026;8.712;2022-12-20T05:47:21;14.98;;;12.15;;
41677;SDS011;27364;49.026;8.712;2022-12-20T05:49:47;16.95;;;12.30;;
41677;SDS011;27364;49.026;8.712;2022-12-20T05:52:12;17.40;;;12.73;;
41677;SDS011;27364;49.026;8.712;2022-12-20T05:54:38;15.77;;;11.90;;
41677;SDS011;27364;49.026;8.712;2022-12-20T05:57:03;16.75;;;12.48;;
41677;SDS011;27364;49.026;8.712;2022-12-20T05:59:29;15.68;;;11.10;;
41677;SDS011;27364;49.026;8.712;2022-12-20T06:01:54;16.20;;;11.85;;
41677;SDS011;27364;49.026;8.712;2022-12-20T06:04:20;17.20;;;11.90;;
41677;SDS011;27364;49.026;8.712;2022-12-20T06:06:45;15.85;;;11.55;;
41677;SDS011;27364;49.026;8.712;2022-12-20T06:09:11;15.57;;;11.82;;
41677;SDS011;27364;49.026;8.712;2022-12-20T06:11:36;16.08;;;12.18;;
41677;SDS011;27364;49.026;8.712;2022-12-20T06:14:02;14.75;;;11.98;;
41677;SDS011;27364;49.026;8.712;2022-12-20T06:16:28;15.57;;;11.10;;
41677;SDS011;27364;49.026;8.712;2022-12-20T06:18:53;12.23;;;10.02;;
41677;SDS011;27364;49.026;8.712;2022-12-20T06:21:19;15.48;;;10.50;;
41677;SDS011;27364;49.026;8.712;2022-12-20T06:23:45;15.02;;;9.73;;
41677;SDS011;27364;49.026;8.712;2022-12-20T06:26:10;14.60;;;10.25;;
41677;SDS011;27364;49.026;8.712;2022-12-20T06:28:36;12.85;;;9.63;;
41677;SDS011;27364;49.026;8.712;2022-12-20T06:31:06;13.30;;;10.43;;
41677;SDS011;27364;49.026;8.712;2022-12-20T06:33:34;13.75;;;10.23;;
41677;SDS011;27364;49.026;8.712;2022-12-20T06:36:00;15.02;;;10.48;;
41677;SDS011;27364;49.026;8.712;2022-12-20T06:38:25;14.07;;;10.32;;
41677;SDS011;27364;49.026;8.712;2022-12-20T06:40:51;12.50;;;10.25;;
41677;SDS011;27364;49.026;8.712;2022-12-20T06:43:16;13.55;;;9.88;;
41677;SDS011;27364;49.026;8.712;2022-12-20T06:45:42;15.35;;;11.73;;
41677;SDS011;27364;49.026;8.712;2022-12-20T06:48:08;19.02;;;13.63;;
41677;SDS011;27364;49.026;8.712;2022-12-20T06:50:34;17.95;;;12.85;;
41677;SDS011;27364;49.026;8.712;2022-12-20T06:53:00;17.50;;;13.10;;
41677;SDS011;27364;49.026;8.712;2022-12-20T06:55:25;24.92;;;16.55;;
41677;SDS011;27364;49.026;8.712;2022-12-20T06:57:50;25.58;;;19.65;;
41677;SDS011;27364;49.026;8.712;2022-12-20T07:00:16;17.27;;;12.43;;
41677;SDS011;27364;49.026;8.712;2022-12-20T07:02:42;15.77;;;11.68;;
41677;SDS011;27364;49.026;8.712;2022-12-20T07:05:09;18.05;;;13.30;;
41677;SDS011;27364;49.026;8.712;2022-12-20T07:07:35;17.75;;;13.48;;
41677;SDS011;27364;49.026;8.712;2022-12-20T07:10:01;16.63;;;13.27;;
41677;SDS011;27364;49.026;8.712;2022-12-20T07:12:26;17.45;;;13.00;;
41677;SDS011;27364;49.026;8.712;2022-12-20T07:14:52;17.67;;;13.40;;
41677;SDS011;27364;49.026;8.712;2022-12-20T07:17:17;17.45;;;13.35;;
41677;SDS011;27364;49.026;8.712;2022-12-20T07:19:43;16.73;;;12.55;;
41677;SDS011;27364;49.026;8.712;2022-12-20T07:22:08;17.98;;;13.52;;
41677;SDS011;27364;49.026;8.712;2022-12-20T07:24:34;19.48;;;13.25;;
41677;SDS011;27364;49.026;8.712;2022-12-20T07:27:00;16.80;;;12.95;;
41677;SDS011;27364;49.026;8.712;2022-12-20T07:29:25;22.55;;;16.27;;
41677;SDS011;27364;49.026;8.712;2022-12-20T07:31:52;20.90;;;15.73;;
41677;SDS011;27364;49.026;8.712;2022-12-20T07:34:17;19.92;;;15.70;;
41677;SDS011;27364;49.026;8.712;2022-12-20T07:36:43;22.85;;;16.63;;
41677;SDS011;27364;49.026;8.712;2022-12-20T07:39:08;25.52;;;18.33;;
41677;SDS011;27364;49.026;8.712;2022-12-20T07:41:34;24.02;;;15.75;;
41677;SDS011;27364;49.026;8.712;2022-12-20T07:44:00;19.58;;;14.30;;
41677;SDS011;27364;49.026;8.712;2022-12-20T07:46:26;22.23;;;15.05;;
41677;SDS011;27364;49.026;8.712;2022-12-20T07:48:51;20.63;;;16.02;;
41677;SDS011;27364;49.026;8.712;2022-12-20T07:51:19;21.10;;;15.70;;
41677;SDS011;27364;49.026;8.712;2022-12-20T07:53:52;18.75;;;13.68;;
41677;SDS011;27364;49.026;8.712;2022-12-20T07:56:48;18.42;;;13.25;;
41677;SDS011;27364;49.026;8.712;2022-12-20T07:59:17;16.92;;;13.13;;
41677;SDS011;27364;49.026;8.712;2022-12-20T08:01:48;17.02;;;12.90;;
41677;SDS011;27364;49.026;8.712;2022-12-20T08:04:16;17.38;;;12.82;;
41677;SDS011;27364;49.026;8.712;2022-12-20T08:06:45;17.60;;;12.27;;
41677;SDS011;27364;49.026;8.712;2022-12-20T08:09:12;17.25;;;12.45;;
41677;SDS011;27364;49.026;8.712;2022-12-20T08:11:39;15.43;;;12.40;;
41677;SDS011;27364;49.026;8.712;2022-12-20T08:16:33;15.02;;;11.77;;
41677;SDS011;27364;49.026;8.712;2022-12-20T08:18:58;16.05;;;12.13;;
41677;SDS011;27364;49.026;8.712;2022-12-20T08:21:24;16.15;;;11.40;;
41677;SDS011;27364;49.026;8.712;2022-12-20T08:23:50;14.07;;;11.90;;
41677;SDS011;27364;49.026;8.712;2022-12-20T08:26:16;14.98;;;11.57;;
41677;SDS011;27364;49.026;8.712;2022-12-20T08:28:41;15.10;;;12.00;;
41677;SDS011;27364;49.026;8.712;2022-12-20T08:31:07;17.88;;;12.60;;
41677;SDS011;27364;49.026;8.712;2022-12-20T08:33:34;17.15;;;12.75;;
41677;SDS011;27364;49.026;8.712;2022-12-20T08:36:03;17.63;;;13.50;;
41677;SDS011;27364;49.026;8.712;2022-12-20T08:38:30;16.58;;;13.15;;
41677;SDS011;27364;49.026;8.712;2022-12-20T08:41:03;18.48;;;13.48;;
41677;SDS011;27364;49.026;8.712;2022-12-20T08:43:31;25.17;;;19.05;;
41677;SDS011;27364;49.026;8.712;2022-12-20T08:45:58;20.25;;;15.38;;
41677;SDS011;27364;49.026;8.712;2022-12-20T08:48:24;21.13;;;14.13;;
41677;SDS011;27364;49.026;8.712;2022-12-20T08:50:57;18.45;;;13.00;;
41677;SDS011;27364;49.026;8.712;2022-12-20T08:53:24;19.13;;;13.25;;
41677;SDS011;27364;49.026;8.712;2022-12-20T08:55:51;17.13;;;13.45;;
41677;SDS011;27364;49.026;8.712;2022-12-20T08:58:17;17.13;;;13.15;;
41677;SDS011;27364;49.026;8.712;2022-12-20T09:00:43;17.30;;;13.00;;
41677;SDS011;27364;49.026;8.712;2022-12-20T09:03:08;18.25;;;13.27;;
41677;SDS011;27364;49.026;8.712;2022-12-20T09:05:35;18.38;;;13.65;;
41677;SDS011;27364;49.026;8.712;2022-12-20T09:08:06;18.55;;;13.18;;
41677;SDS011;27364;49.026;8.712;2022-12-20T09:10:32;18.25;;;13.13;;
41677;SDS011;27364;49.026;8.712;2022-12-20T09:12:58;16.77;;;12.77;;
41677;SDS011;27364;49.026;8.712;2022-12-20T09:15:23;18.05;;;13.35;;
41677;SDS011;27364;49.026;8.712;2022-12-20T09:17:51;19.70;;;14.18;;
41677;SDS011;27364;49.026;8.712;2022-12-20T09:20:17;19.00;;;13.88;;
41677;SDS011;27364;49.026;8.712;2022-12-20T09:22:43;16.17;;;12.60;;
41677;SDS011;27364;49.026;8.712;2022-12-20T09:25:08;16.88;;;12.15;;
41677;SDS011;27364;49.026;8.712;2022-12-20T09:27:34;16.05;;;11.95;;
41677;SDS011;27364;49.026;8.712;2022-12-20T09:30:00;18.27;;;12.45;;
41677;SDS011;27364;49.026;8.712;2022-12-20T09:32:25;18.08;;;12.38;;
41677;SDS011;27364;49.026;8.712;2022-12-20T09:34:51;17.25;;;12.82;;
41677;SDS011;27364;49.026;8.712;2022-12-20T09:37:16;16.63;;;12.00;;
41677;SDS011;27364;49.026;8.712;2022-12-20T09:39:42;16.13;;;12.48;;
41677;SDS011;27364;49.026;8.712;2022-12-20T09:42:07;14.75;;;11.40;;
41677;SDS011;27364;49.026;8.712;2022-12-20T09:44:35;14.25;;;11.68;;
41677;SDS011;27364;49.026;8.712;2022-12-20T09:49:40;17.83;;;12.90;;
41677;SDS011;27364;49.026;8.712;2022-12-20T09:55:27;17.08;;;12.40;;
41677;SDS011;27364;49.026;8.712;2022-12-20T09:58:04;17.17;;;12.57;;
41677;SDS011;27364;49.026;8.712;2022-12-20T10:00:40;19.35;;;12.73;;
41677;SDS011;27364;49.026;8.712;2022-12-20T10:03:12;19.42;;;12.20;;
41677;SDS011;27364;49.026;8.712;2022-12-20T10:05:54;20.70;;;14.00;;
41677;SDS011;27364;49.026;8.712;2022-12-20T10:24:16;20.25;;;12.38;;
41677;SDS011;27364;49.026;8.712;2022-12-20T10:26:44;15.77;;;11.55;;
41677;SDS011;27364;49.026;8.712;2022-12-20T10:29:13;14.63;;;11.05;;
41677;SDS011;27364;49.026;8.712;2022-12-20T10:31:39;15.15;;;11.45;;
41677;SDS011;27364;49.026;8.712;2022-12-20T10:34:05;16.63;;;11.15;;
41677;SDS011;27364;49.026;8.712;2022-12-20T10:36:35;14.55;;;10.93;;
41677;SDS011;27364;49.026;8.712;2022-12-20T10:39:03;17.55;;;12.35;;
41677;SDS011;27364;49.026;8.712;2022-12-20T10:46:41;16.77;;;12.40;;
41677;SDS011;27364;49.026;8.712;2022-12-20T10:49:21;18.00;;;12.13;;
41677;SDS011;27364;49.026;8.712;2022-12-20T10:54:31;15.48;;;12.00;;
41677;SDS011;27364;49.026;8.712;2022-12-20T10:57:17;15.38;;;10.75;;
41677;SDS011;27364;49.026;8.712;2022-12-20T10:59:48;13.77;;;10.10;;
41677;SDS011;27364;49.026;8.712;2022-12-20T11:07:29;15.00;;;10.20;;
41677;SDS011;27364;49.026;8.712;2022-12-20T11:09:58;12.55;;;9.85;;
41677;SDS011;27364;49.026;8.712;2022-12-20T11:12:54;15.27;;;11.40;;
41677;SDS011;27364;49.026;8.712;2022-12-20T11:15:22;18.40;;;12.77;;
41677;SDS011;27364;49.026;8.712;2022-12-20T11:18:05;17.13;;;11.10;;
41677;SDS011;27364;49.026;8.712;2022-12-20T11:38:46;13.60;;;9.70;;
41677;SDS011;27364;49.026;8.712;2022-12-20T11:44:04;16.50;;;10.02;;
41677;SDS011;27364;49.026;8.712;2022-12-20T11:49:38;13.05;;;10.02;;
41677;SDS011;27364;49.026;8.712;2022-12-20T11:52:20;12.98;;;9.75;;
41677;SDS011;27364;49.026;8.712;2022-12-20T11:55:20;14.50;;;9.55;;
41677;SDS011;27364;49.026;8.712;2022-12-20T12:00:48;18.88;;;12.57;;
41677;SDS011;27364;49.026;8.712;2022-12-20T12:03:25;16.90;;;11.27;;
41677;SDS011;27364;49.026;8.712;2022-12-20T12:05:58;14.77;;;10.93;;
41677;SDS011;27364;49.026;8.712;2022-12-20T12:08:47;12.32;;;8.50;;
41677;SDS011;27364;49.026;8.712;2022-12-20T12:11:26;11.73;;;8.25;;
41677;SDS011;27364;49.026;8.712;2022-12-20T12:13:56;12.25;;;8.80;;
41677;SDS011;27364;49.026;8.712;2022-12-20T12:16:27;13.07;;;9.40;;
41677;SDS011;27364;49.026;8.712;2022-12-20T12:18:58;12.63;;;9.43;;
41677;SDS011;27364;49.026;8.712;2022-12-20T12:21:26;16.73;;;9.73;;
41677;SDS011;27364;49.026;8.712;2022-12-20T12:26:32;11.80;;;8.80;;
41677;SDS011;27364;49.026;8.712;2022-12-20T12:34:28;15.48;;;9.80;;
41677;SDS011;27364;49.026;8.712;2022-12-20T12:37:26;13.13;;;9.07;;
41677;SDS011;27364;49.026;8.712;2022-12-20T12:45:23;15.10;;;10.05;;
41677;SDS011;27364;49.026;8.712;2022-12-20T12:50:45;13.73;;;10.38;;
41677;SDS011;27364;49.026;8.712;2022-12-20T12:55:48;14.60;;;9.85;;
41677;SDS011;27364;49.026;8.712;2022-12-20T13:08:48;14.65;;;9.30;;
41677;SDS011;27364;49.026;8.712;2022-12-20T13:11:36;13.30;;;9.48;;
41677;SDS011;27364;49.026;8.712;2022-12-20T13:14:50;15.98;;;9.65;;
41677;SDS011;27364;49.026;8.712;2022-12-20T13:19:38;13.88;;;10.55;;
41677;SDS011;27364;49.026;8.712;2022-12-20T13:37:53;18.88;;;13.48;;
41677;SDS011;27364;49.026;8.712;2022-12-20T13:40:39;13.73;;;10.07;;
41677;SDS011;27364;49.026;8.712;2022-12-20T13:45:47;12.65;;;9.13;;
41677;SDS011;27364;49.026;8.712;2022-12-20T13:48:16;12.70;;;8.77;;
41677;SDS011;27364;49.026;8.712;2022-12-20T13:50:47;11.88;;;8.05;;
41677;SDS011;27364;49.026;8.712;2022-12-20T13:53:17;10.43;;;8.15;;
41677;SDS011;27364;49.026;8.712;2022-12-20T13:55:44;14.50;;;7.47;;
41677;SDS011;27364;49.026;8.712;2022-12-20T13:58:17;12.07;;;7.10;;
41677;SDS011;27364;49.026;8.712;2022-12-20T14:00:47;8.98;;;6.55;;
41677;SDS011;27364;49.026;8.712;2022-12-20T14:03:19;11.60;;;7.67;;
41677;SDS011;27364;49.026;8.712;2022-12-20T14:05:50;10.60;;;7.18;;
41677;SDS011;27364;49.026;8.712;2022-12-20T14:08:21;9.93;;;6.93;;
41677;SDS011;27364;49.026;8.712;2022-12-20T14:10:51;10.00;;;7.07;;
41677;SDS011;27364;49.026;8.712;2022-12-20T14:13:21;9.88;;;6.85;;
41677;SDS011;27364;49.026;8.712;2022-12-20T14:15:48;12.73;;;7.85;;
41677;SDS011;27364;49.026;8.712;2022-12-20T14:18:22;14.18;;;9.18;;
41677;SDS011;27364;49.026;8.712;2022-12-20T14:20:49;15.18;;;10.93;;
41677;SDS011;27364;49.026;8.712;2022-12-20T14:23:31;12.30;;;8.60;;
41677;SDS011;27364;49.026;8.712;2022-12-20T14:26:02;16.98;;;8.98;;
41677;SDS011;27364;49.026;8.712;2022-12-20T14:30:56;13.15;;;8.27;;
41677;SDS011;27364;49.026;8.712;2022-12-20T14:38:55;12.23;;;9.98;;
41677;SDS011;27364;49.026;8.712;2022-12-20T14:41:28;12.23;;;9.45;;
41677;SDS011;27364;49.026;8.712;2022-12-20T14:44:12;17.65;;;13.40;;
41677;SDS011;27364;49.026;8.712;2022-12-20T14:46:45;13.88;;;9.60;;
41677;SDS011;27364;49.026;8.712;2022-12-20T14:54:57;26.60;;;10.60;;
41677;SDS011;27364;49.026;8.712;2022-12-20T15:02:40;11.65;;;7.15;;
41677;SDS011;27364;49.026;8.712;2022-12-20T15:05:34;9.73;;;7.45;;
41677;SDS011;27364;49.026;8.712;2022-12-20T15:08:22;12.10;;;6.85;;
41677;SDS011;27364;49.026;8.712;2022-12-20T15:10:59;10.43;;;7.60;;
41677;SDS011;27364;49.026;8.712;2022-12-20T15:16:03;35.03;;;17.38;;
41677;SDS011;27364;49.026;8.712;2022-12-20T15:18:37;35.20;;;18.25;;
41677;SDS011;27364;49.026;8.712;2022-12-20T15:21:04;34.10;;;17.42;;
41677;SDS011;27364;49.026;8.712;2022-12-20T15:23:34;29.83;;;16.25;;
41677;SDS011;27364;49.026;8.712;2022-12-20T15:26:00;27.27;;;15.13;;
41677;SDS011;27364;49.026;8.712;2022-12-20T15:28:25;26.35;;;16.67;;
41677;SDS011;27364;49.026;8.712;2022-12-20T15:30:51;34.22;;;19.70;;
41677;SDS011;27364;49.026;8.712;2022-12-20T15:33:19;30.67;;;14.65;;
41677;SDS011;27364;49.026;8.712;2022-12-20T15:35:50;24.00;;;14.68;;
41677;SDS011;27364;49.026;8.712;2022-12-20T15:38:17;25.67;;;16.08;;
41677;SDS011;27364;49.026;8.712;2022-12-20T15:40:48;30.33;;;19.27;;
41677;SDS011;27364;49.026;8.712;2022-12-20T15:43:18;33.30;;;19.13;;
41677;SDS011;27364;49.026;8.712;2022-12-20T15:45:46;28.90;;;17.83;;
41677;SDS011;27364;49.026;8.712;2022-12-20T15:48:15;25.35;;;16.23;;
41677;SDS011;27364;49.026;8.712;2022-12-20T15:50:43;17.27;;;11.73;;
41677;SDS011;27364;49.026;8.712;2022-12-20T15:53:14;18.92;;;12.93;;
41677;SDS011;27364;49.026;8.712;2022-12-20T15:55:41;27.08;;;17.40;;
41677;SDS011;27364;49.026;8.712;2022-12-20T15:58:07;45.25;;;29.40;;
41677;SDS011;27364;49.026;8.712;2022-12-20T16:00:35;22.98;;;15.70;;
41677;SDS011;27364;49.026;8.712;2022-12-20T16:03:07;18.70;;;12.85;;
41677;SDS011;27364;49.026;8.712;2022-12-20T16:05:38;28.17;;;19.02;;
41677;SDS011;27364;49.026;8.712;2022-12-20T16:08:03;37.67;;;26.45;;
41677;SDS011;27364;49.026;8.712;2022-12-20T16:10:29;33.65;;;24.42;;
41677;SDS011;27364;49.026;8.712;2022-12-20T16:12:55;29.95;;;21.23;;
41677;SDS011;27364;49.026;8.712;2022-12-20T16:15:21;32.05;;;20.23;;
41677;SDS011;27364;49.026;8.712;2022-12-20T16:17:47;30.20;;;19.67;;
41677;SDS011;27364;49.026;8.712;2022-12-20T16:20:12;26.02;;;17.52;;
41677;SDS011;27364;49.026;8.712;2022-12-20T16:22:38;27.52;;;20.70;;
41677;SDS011;27364;49.026;8.712;2022-12-20T16:25:04;23.77;;;18.20;;
41677;SDS011;27364;49.026;8.712;2022-12-20T16:27:30;21.38;;;15.75;;
41677;SDS011;27364;49.026;8.712;2022-12-20T16:29:55;21.65;;;14.23;;
41677;SDS011;27364;49.026;8.712;2022-12-20T16:32:21;16.25;;;12.75;;
41677;SDS011;27364;49.026;8.712;2022-12-20T16:34:49;19.85;;;13.38;;
41677;SDS011;27364;49.026;8.712;2022-12-20T16:37:16;16.92;;;12.20;;
41677;SDS011;27364;49.026;8.712;2022-12-20T16:39:42;17.27;;;11.52;;
41677;SDS011;27364;49.026;8.712;2022-12-20T16:42:18;15.48;;;10.88;;
41677;SDS011;27364;49.026;8.712;2022-12-20T16:44:49;15.52;;;11.23;;
41677;SDS011;27364;49.026;8.712;2022-12-20T16:47:16;14.27;;;10.52;;
41677;SDS011;27364;49.026;8.712;2022-12-20T16:49:41;17.90;;;11.65;;
41677;SDS011;27364;49.026;8.712;2022-12-20T16:52:10;17.08;;;11.25;;
41677;SDS011;27364;49.026;8.712;2022-12-20T16:54:39;15.85;;;11.18;;
41677;SDS011;27364;49.026;8.712;2022-12-20T16:57:05;16.65;;;9.98;;
41677;SDS011;27364;49.026;8.712;2022-12-20T16:59:30;15.95;;;9.50;;
41677;SDS011;27364;49.026;8.712;2022-12-20T17:01:56;16.98;;;10.40;;
41677;SDS011;27364;49.026;8.712;2022-12-20T17:04:22;15.02;;;10.45;;
41677;SDS011;27364;49.026;8.712;2022-12-20T17:06:48;13.93;;;9.85;;
41677;SDS011;27364;49.026;8.712;2022-12-20T17:09:14;15.93;;;9.88;;
41677;SDS011;27364;49.026;8.712;2022-12-20T17:11:40;16.13;;;10.65;;